sensor_id;sensor_type;location;lat;lon;timestamp;temperature;humidity
76893;DHT22;65854;51.466;7.260;2022-12-08T00:01:40;4.00;83.90
76893;DHT22;65854;51.466;7.260;2022-12-08T00:04:05;4.00;84.40
76893;DHT22;65854;51.466;7.260;2022-12-08T00:06:35;4.00;84.20
76893;DHT22;65854;51.466;7.260;2022-12-08T00:09:32;4.10;84.40
76893;DHT22;65854;51.466;7.260;2022-12-08T00:12:00;4.10;84.00
76893;DHT22;65854;51.466;7.260;2022-12-08T00:14:30;4.10;84.10
76893;DHT22;65854;51.466;7.260;2022-12-08T00:16:57;4.10;84.30
76893;DHT22;65854;51.466;7.260;2022-12-08T00:19:23;4.10;84.60
76893;DHT22;65854;51.466;7.260;2022-12-08T00:21:49;4.10;84.20
76893;DHT22;65854;51.466;7.260;2022-12-08T00:24:16;4.10;84.30
76893;DHT22;65854;51.466;7.260;2022-12-08T00:26:41;4.10;84.00
76893;DHT22;65854;51.466;7.260;2022-12-08T00:29:07;4.10;84.20
76893;DHT22;65854;51.466;7.260;2022-12-08T00:31:33;4.10;84.10
76893;DHT22;65854;51.466;7.260;2022-12-08T00:33:59;4.10;84.00
76893;DHT22;65854;51.466;7.260;2022-12-08T00:36:25;4.10;83.80
76893;DHT22;65854;51.466;7.260;2022-12-08T00:38:50;4.00;84.20
76893;DHT22;65854;51.466;7.260;2022-12-08T00:41:18;4.00;84.20
76893;DHT22;65854;51.466;7.260;2022-12-08T00:44:05;4.00;84.50
76893;DHT22;65854;51.466;7.260;2022-12-08T00:46:31;4.10;84.20
76893;DHT22;65854;51.466;7.260;2022-12-08T00:48:57;4.10;83.70
76893;DHT22;65854;51.466;7.260;2022-12-08T00:51:22;4.10;83.70
76893;DHT22;65854;51.466;7.260;2022-12-08T00:53:48;4.00;83.70
76893;DHT22;65854;51.466;7.260;2022-12-08T00:56:13;4.00;84.00
76893;DHT22;65854;51.466;7.260;2022-12-08T00:58:39;4.00;84.20
76893;DHT22;65854;51.466;7.260;2022-12-08T01:01:12;4.00;84.40
76893;DHT22;65854;51.466;7.260;2022-12-08T01:03:38;4.00;84.00
76893;DHT22;65854;51.466;7.260;2022-12-08T01:06:05;4.10;83.50
76893;DHT22;65854;51.466;7.260;2022-12-08T01:08:31;4.10;83.40
76893;DHT22;65854;51.466;7.260;2022-12-08T01:11:02;4.00;83.80
76893;DHT22;65854;51.466;7.260;2022-12-08T01:13:28;4.00;83.90
76893;DHT22;65854;51.466;7.260;2022-12-08T01:15:54;4.00;84.00
76893;DHT22;65854;51.466;7.260;2022-12-08T01:18:19;4.00;83.80
76893;DHT22;65854;51.466;7.260;2022-12-08T01:20:45;3.90;84.30
76893;DHT22;65854;51.466;7.260;2022-12-08T01:23:10;3.90;83.90
76893;DHT22;65854;51.466;7.260;2022-12-08T01:25:36;3.90;83.70
76893;DHT22;65854;51.466;7.260;2022-12-08T01:28:01;3.90;83.80
76893;DHT22;65854;51.466;7.260;2022-12-08T01:30:27;3.90;83.70
76893;DHT22;65854;51.466;7.260;2022-12-08T01:32:53;3.90;83.90
76893;DHT22;65854;51.466;7.260;2022-12-08T01:35:18;3.90;83.80
76893;DHT22;65854;51.466;7.260;2022-12-08T01:37:44;3.90;84.10
76893;DHT22;65854;51.466;7.260;2022-12-08T01:40:09;3.80;84.30
76893;DHT22;65854;51.466;7.260;2022-12-08T01:42:35;3.80;84.20
76893;DHT22;65854;51.466;7.260;2022-12-08T01:45:13;3.90;84.10
76893;DHT22;65854;51.466;7.260;2022-12-08T01:47:45;3.90;83.80
76893;DHT22;65854;51.466;7.260;2022-12-08T01:50:15;3.80;84.30
76893;DHT22;65854;51.466;7.260;2022-12-08T01:52:47;3.90;84.50
76893;DHT22;65854;51.466;7.260;2022-12-08T01:55:18;3.90;84.10
76893;DHT22;65854;51.466;7.260;2022-12-08T01:57:50;3.90;84.20
76893;DHT22;65854;51.466;7.260;2022-12-08T02:00:19;3.90;83.60
76893;DHT22;65854;51.466;7.260;2022-12-08T02:02:58;3.80;84.00
76893;DHT22;65854;51.466;7.260;2022-12-08T02:05:35;3.80;83.90
76893;DHT22;65854;51.466;7.260;2022-12-08T02:08:06;3.80;83.90
76893;DHT22;65854;51.466;7.260;2022-12-08T02:10:35;3.80;84.30
76893;DHT22;65854;51.466;7.260;2022-12-08T02:13:02;3.80;84.00
76893;DHT22;65854;51.466;7.260;2022-12-08T02:19:07;3.80;84.30
76893;DHT22;65854;51.466;7.260;2022-12-08T02:21:18;3.80;84.40
76893;DHT22;65854;51.466;7.260;2022-12-08T02:32:39;3.90;84.00
76893;DHT22;65854;51.466;7.260;2022-12-08T02:35:15;3.80;84.20
76893;DHT22;65854;51.466;7.260;2022-12-08T02:37:49;3.90;83.80
76893;DHT22;65854;51.466;7.260;2022-12-08T02:40:27;3.80;84.30
76893;DHT22;65854;51.466;7.260;2022-12-08T02:45:57;3.90;84.50
76893;DHT22;65854;51.466;7.260;2022-12-08T02:48:27;3.90;83.70
76893;DHT22;65854;51.466;7.260;2022-12-08T02:50:52;3.90;84.00
76893;DHT22;65854;51.466;7.260;2022-12-08T02:53:18;3.90;84.00
76893;DHT22;65854;51.466;7.260;2022-12-08T02:56:13;4.00;84.10
76893;DHT22;65854;51.466;7.260;2022-12-08T03:07:11;4.00;83.30
76893;DHT22;65854;51.466;7.260;2022-12-08T03:09:52;4.00;83.70
76893;DHT22;65854;51.466;7.260;2022-12-08T03:12:29;4.00;83.70
76893;DHT22;65854;51.466;7.260;2022-12-08T03:14:58;3.90;84.00
76893;DHT22;65854;51.466;7.260;2022-12-08T03:17:27;4.00;84.20
76893;DHT22;65854;51.466;7.260;2022-12-08T03:19:54;4.00;83.70
76893;DHT22;65854;51.466;7.260;2022-12-08T03:22:24;4.00;83.90
76893;DHT22;65854;51.466;7.260;2022-12-08T03:24:50;4.00;83.90
76893;DHT22;65854;51.466;7.260;2022-12-08T03:27:27;4.10;83.90
76893;DHT22;65854;51.466;7.260;2022-12-08T03:29:55;4.10;83.70
76893;DHT22;65854;51.466;7.260;2022-12-08T03:32:27;4.00;83.80
76893;DHT22;65854;51.466;7.260;2022-12-08T03:34:55;4.00;84.10
76893;DHT22;65854;51.466;7.260;2022-12-08T03:37:22;4.00;84.30
76893;DHT22;65854;51.466;7.260;2022-12-08T03:39:48;4.00;84.10
76893;DHT22;65854;51.466;7.260;2022-12-08T03:42:13;4.00;84.10
76893;DHT22;65854;51.466;7.260;2022-12-08T03:44:39;4.10;84.00
76893;DHT22;65854;51.466;7.260;2022-12-08T03:47:05;4.00;84.50
76893;DHT22;65854;51.466;7.260;2022-12-08T03:49:30;4.10;84.00
76893;DHT22;65854;51.466;7.260;2022-12-08T03:51:56;4.10;84.10
76893;DHT22;65854;51.466;7.260;2022-12-08T03:54:21;4.10;84.50
76893;DHT22;65854;51.466;7.260;2022-12-08T03:56:48;4.10;84.20
76893;DHT22;65854;51.466;7.260;2022-12-08T03:59:14;4.00;83.70
76893;DHT22;65854;51.466;7.260;2022-12-08T04:01:40;4.00;84.20
76893;DHT22;65854;51.466;7.260;2022-12-08T04:04:05;4.00;84.30
76893;DHT22;65854;51.466;7.260;2022-12-08T04:06:34;4.00;84.40
76893;DHT22;65854;51.466;7.260;2022-12-08T04:08:59;4.00;83.50
76893;DHT22;65854;51.466;7.260;2022-12-08T04:11:25;4.00;83.90
76893;DHT22;65854;51.466;7.260;2022-12-08T04:13:50;4.10;83.90
76893;DHT22;65854;51.466;7.260;2022-12-08T04:16:18;4.10;84.00
76893;DHT22;65854;51.466;7.260;2022-12-08T04:18:45;4.10;83.20
76893;DHT22;65854;51.466;7.260;2022-12-08T04:21:11;4.10;83.80
76893;DHT22;65854;51.466;7.260;2022-12-08T04:23:36;4.10;83.50
76893;DHT22;65854;51.466;7.260;2022-12-08T04:26:02;4.10;83.30
76893;DHT22;65854;51.466;7.260;2022-12-08T04:28:28;4.10;83.10
76893;DHT22;65854;51.466;7.260;2022-12-08T04:30:54;4.20;83.30
76893;DHT22;65854;51.466;7.260;2022-12-08T04:33:19;4.20;83.10
76893;DHT22;65854;51.466;7.260;2022-12-08T04:35:45;4.20;83.90
76893;DHT22;65854;51.466;7.260;2022-12-08T04:38:11;4.20;83.00
76893;DHT22;65854;51.466;7.260;2022-12-08T04:40:37;4.20;83.70
76893;DHT22;65854;51.466;7.260;2022-12-08T04:43:03;4.10;83.50
76893;DHT22;65854;51.466;7.260;2022-12-08T04:45:29;4.20;83.70
76893;DHT22;65854;51.466;7.260;2022-12-08T04:47:55;4.20;83.50
76893;DHT22;65854;51.466;7.260;2022-12-08T04:50:20;4.20;83.80
76893;DHT22;65854;51.466;7.260;2022-12-08T04:52:46;4.20;83.40
76893;DHT22;65854;51.466;7.260;2022-12-08T04:55:11;4.10;83.70
76893;DHT22;65854;51.466;7.260;2022-12-08T04:57:37;4.10;85.50
76893;DHT22;65854;51.466;7.260;2022-12-08T05:00:04;4.00;87.80
76893;DHT22;65854;51.466;7.260;2022-12-08T05:02:30;3.90;87.60
76893;DHT22;65854;51.466;7.260;2022-12-08T05:04:57;3.80;88.00
76893;DHT22;65854;51.466;7.260;2022-12-08T05:07:22;3.70;88.20
76893;DHT22;65854;51.466;7.260;2022-12-08T05:09:48;3.60;86.80
76893;DHT22;65854;51.466;7.260;2022-12-08T05:12:16;3.60;89.10
76893;DHT22;65854;51.466;7.260;2022-12-08T05:14:42;3.60;89.40
76893;DHT22;65854;51.466;7.260;2022-12-08T05:17:07;3.70;88.80
76893;DHT22;65854;51.466;7.260;2022-12-08T05:19:33;3.70;89.30
76893;DHT22;65854;51.466;7.260;2022-12-08T05:21:58;3.70;89.70
76893;DHT22;65854;51.466;7.260;2022-12-08T05:24:24;3.70;89.20
76893;DHT22;65854;51.466;7.260;2022-12-08T05:26:50;3.60;89.60
76893;DHT22;65854;51.466;7.260;2022-12-08T05:29:15;3.60;90.00
76893;DHT22;65854;51.466;7.260;2022-12-08T05:31:41;3.50;89.80
76893;DHT22;65854;51.466;7.260;2022-12-08T05:34:06;3.60;90.70
76893;DHT22;65854;51.466;7.260;2022-12-08T05:36:32;3.60;90.70
76893;DHT22;65854;51.466;7.260;2022-12-08T05:38:57;3.50;90.60
76893;DHT22;65854;51.466;7.260;2022-12-08T05:41:23;3.50;89.60
76893;DHT22;65854;51.466;7.260;2022-12-08T05:43:49;3.50;90.60
76893;DHT22;65854;51.466;7.260;2022-12-08T05:46:15;3.50;89.70
76893;DHT22;65854;51.466;7.260;2022-12-08T05:48:41;3.40;90.30
76893;DHT22;65854;51.466;7.260;2022-12-08T05:51:16;3.40;89.90
76893;DHT22;65854;51.466;7.260;2022-12-08T05:53:42;3.50;90.80
76893;DHT22;65854;51.466;7.260;2022-12-08T05:56:08;3.50;91.40
76893;DHT22;65854;51.466;7.260;2022-12-08T05:58:33;3.50;90.60
76893;DHT22;65854;51.466;7.260;2022-12-08T06:00:59;3.50;90.70
76893;DHT22;65854;51.466;7.260;2022-12-08T06:03:24;3.60;91.00
76893;DHT22;65854;51.466;7.260;2022-12-08T06:05:50;3.60;91.00
76893;DHT22;65854;51.466;7.260;2022-12-08T06:08:15;3.60;90.20
76893;DHT22;65854;51.466;7.260;2022-12-08T06:10:43;3.60;89.70
76893;DHT22;65854;51.466;7.260;2022-12-08T06:13:09;3.60;89.70
76893;DHT22;65854;51.466;7.260;2022-12-08T06:15:36;3.70;90.00
76893;DHT22;65854;51.466;7.260;2022-12-08T06:18:01;3.60;88.80
76893;DHT22;65854;51.466;7.260;2022-12-08T06:20:27;3.60;89.10
76893;DHT22;65854;51.466;7.260;2022-12-08T06:22:53;3.60;88.50
76893;DHT22;65854;51.466;7.260;2022-12-08T06:25:19;3.60;89.00
76893;DHT22;65854;51.466;7.260;2022-12-08T06:27:44;3.60;88.60
76893;DHT22;65854;51.466;7.260;2022-12-08T06:30:10;3.60;89.10
76893;DHT22;65854;51.466;7.260;2022-12-08T06:32:36;3.60;88.50
76893;DHT22;65854;51.466;7.260;2022-12-08T06:35:01;3.60;88.40
76893;DHT22;65854;51.466;7.260;2022-12-08T06:37:27;3.60;90.30
76893;DHT22;65854;51.466;7.260;2022-12-08T06:39:53;3.60;90.30
76893;DHT22;65854;51.466;7.260;2022-12-08T06:42:18;3.50;90.00
76893;DHT22;65854;51.466;7.260;2022-12-08T06:45:03;3.50;90.10
76893;DHT22;65854;51.466;7.260;2022-12-08T06:47:28;3.50;90.70
76893;DHT22;65854;51.466;7.260;2022-12-08T06:49:54;3.40;89.70
76893;DHT22;65854;51.466;7.260;2022-12-08T06:52:19;3.40;90.30
76893;DHT22;65854;51.466;7.260;2022-12-08T06:54:45;3.30;90.70
76893;DHT22;65854;51.466;7.260;2022-12-08T06:57:11;3.40;91.40
76893;DHT22;65854;51.466;7.260;2022-12-08T06:59:37;3.40;91.40
76893;DHT22;65854;51.466;7.260;2022-12-08T07:02:03;3.50;92.00
76893;DHT22;65854;51.466;7.260;2022-12-08T07:04:29;3.50;92.10
76893;DHT22;65854;51.466;7.260;2022-12-08T07:06:54;3.50;91.20
76893;DHT22;65854;51.466;7.260;2022-12-08T07:09:20;3.50;92.00
76893;DHT22;65854;51.466;7.260;2022-12-08T07:11:45;3.50;92.20
76893;DHT22;65854;51.466;7.260;2022-12-08T07:14:11;3.50;91.80
76893;DHT22;65854;51.466;7.260;2022-12-08T07:16:37;3.40;91.40
76893;DHT22;65854;51.466;7.260;2022-12-08T07:19:04;3.40;92.80
76893;DHT22;65854;51.466;7.260;2022-12-08T07:21:30;3.40;93.70
76893;DHT22;65854;51.466;7.260;2022-12-08T07:23:55;3.50;94.20
76893;DHT22;65854;51.466;7.260;2022-12-08T07:26:21;3.40;93.70
76893;DHT22;65854;51.466;7.260;2022-12-08T07:28:46;3.30;93.40
76893;DHT22;65854;51.466;7.260;2022-12-08T07:31:17;3.40;93.90
76893;DHT22;65854;51.466;7.260;2022-12-08T07:33:43;3.40;93.90
76893;DHT22;65854;51.466;7.260;2022-12-08T07:36:09;3.30;93.20
76893;DHT22;65854;51.466;7.260;2022-12-08T07:38:35;3.20;93.20
76893;DHT22;65854;51.466;7.260;2022-12-08T07:41:01;3.20;93.00
76893;DHT22;65854;51.466;7.260;2022-12-08T07:43:26;3.20;92.50
76893;DHT22;65854;51.466;7.260;2022-12-08T07:45:52;3.20;93.00
76893;DHT22;65854;51.466;7.260;2022-12-08T07:48:18;3.20;92.40
76893;DHT22;65854;51.466;7.260;2022-12-08T07:50:43;3.20;93.00
76893;DHT22;65854;51.466;7.260;2022-12-08T07:53:09;3.30;93.30
76893;DHT22;65854;51.466;7.260;2022-12-08T07:55:42;3.30;93.30
76893;DHT22;65854;51.466;7.260;2022-12-08T07:58:08;3.30;93.40
76893;DHT22;65854;51.466;7.260;2022-12-08T08:00:34;3.30;92.70
76893;DHT22;65854;51.466;7.260;2022-12-08T08:03:00;3.30;93.10
76893;DHT22;65854;51.466;7.260;2022-12-08T08:05:26;3.40;93.20
76893;DHT22;65854;51.466;7.260;2022-12-08T08:07:52;3.40;92.70
76893;DHT22;65854;51.466;7.260;2022-12-08T08:10:18;3.30;92.50
76893;DHT22;65854;51.466;7.260;2022-12-08T08:12:43;3.30;92.50
76893;DHT22;65854;51.466;7.260;2022-12-08T08:15:09;3.30;92.60
76893;DHT22;65854;51.466;7.260;2022-12-08T08:17:36;3.30;92.40
76893;DHT22;65854;51.466;7.260;2022-12-08T08:20:04;3.30;92.40
76893;DHT22;65854;51.466;7.260;2022-12-08T08:22:31;3.30;91.90
76893;DHT22;65854;51.466;7.260;2022-12-08T08:24:57;3.20;92.10
76893;DHT22;65854;51.466;7.260;2022-12-08T08:27:23;3.30;92.30
76893;DHT22;65854;51.466;7.260;2022-12-08T08:29:49;3.30;93.30
76893;DHT22;65854;51.466;7.260;2022-12-08T08:32:15;3.20;92.60
76893;DHT22;65854;51.466;7.260;2022-12-08T08:34:41;3.20;92.80
76893;DHT22;65854;51.466;7.260;2022-12-08T08:37:06;3.20;93.30
76893;DHT22;65854;51.466;7.260;2022-12-08T08:39:32;3.10;93.40
76893;DHT22;65854;51.466;7.260;2022-12-08T08:41:57;3.10;93.20
76893;DHT22;65854;51.466;7.260;2022-12-08T08:44:23;3.10;94.10
76893;DHT22;65854;51.466;7.260;2022-12-08T08:46:48;3.10;94.60
76893;DHT22;65854;51.466;7.260;2022-12-08T08:49:14;3.20;94.80
76893;DHT22;65854;51.466;7.260;2022-12-08T08:51:40;3.10;94.70
76893;DHT22;65854;51.466;7.260;2022-12-08T08:54:06;3.10;94.40
76893;DHT22;65854;51.466;7.260;2022-12-08T08:56:31;3.10;94.50
76893;DHT22;65854;51.466;7.260;2022-12-08T08:58:57;3.10;94.20
76893;DHT22;65854;51.466;7.260;2022-12-08T09:01:25;3.00;94.00
76893;DHT22;65854;51.466;7.260;2022-12-08T09:03:52;3.10;94.80
76893;DHT22;65854;51.466;7.260;2022-12-08T09:06:18;3.10;94.60
76893;DHT22;65854;51.466;7.260;2022-12-08T09:08:45;3.10;95.00
76893;DHT22;65854;51.466;7.260;2022-12-08T09:11:11;3.10;94.80
76893;DHT22;65854;51.466;7.260;2022-12-08T09:13:37;3.00;94.40
76893;DHT22;65854;51.466;7.260;2022-12-08T09:16:05;3.10;94.70
76893;DHT22;65854;51.466;7.260;2022-12-08T09:18:31;3.00;93.80
76893;DHT22;65854;51.466;7.260;2022-12-08T09:21:04;3.00;93.90
76893;DHT22;65854;51.466;7.260;2022-12-08T09:23:30;3.00;93.60
76893;DHT22;65854;51.466;7.260;2022-12-08T09:25:55;3.00;93.60
76893;DHT22;65854;51.466;7.260;2022-12-08T09:28:21;3.00;93.70
76893;DHT22;65854;51.466;7.260;2022-12-08T09:30:46;3.00;93.60
76893;DHT22;65854;51.466;7.260;2022-12-08T09:33:12;3.10;93.90
76893;DHT22;65854;51.466;7.260;2022-12-08T09:35:37;3.10;93.70
76893;DHT22;65854;51.466;7.260;2022-12-08T09:38:03;3.10;93.60
76893;DHT22;65854;51.466;7.260;2022-12-08T09:40:31;3.10;93.90
76893;DHT22;65854;51.466;7.260;2022-12-08T09:45:27;3.20;93.80
76893;DHT22;65854;51.466;7.260;2022-12-08T09:48:12;3.20;93.80
76893;DHT22;65854;51.466;7.260;2022-12-08T09:50:56;3.10;93.30
76893;DHT22;65854;51.466;7.260;2022-12-08T09:55:59;3.10;93.10
76893;DHT22;65854;51.466;7.260;2022-12-08T09:58:51;3.10;92.40
76893;DHT22;65854;51.466;7.260;2022-12-08T10:01:22;3.10;91.90
76893;DHT22;65854;51.466;7.260;2022-12-08T10:03:49;3.10;92.50
76893;DHT22;65854;51.466;7.260;2022-12-08T10:06:28;3.10;92.40
76893;DHT22;65854;51.466;7.260;2022-12-08T10:11:49;3.00;92.90
76893;DHT22;65854;51.466;7.260;2022-12-08T10:14:27;3.00;92.80
76893;DHT22;65854;51.466;7.260;2022-12-08T10:17:02;2.90;93.10
76893;DHT22;65854;51.466;7.260;2022-12-08T10:19:28;2.90;93.10
76893;DHT22;65854;51.466;7.260;2022-12-08T10:21:56;2.90;93.20
76893;DHT22;65854;51.466;7.260;2022-12-08T10:24:35;3.00;93.80
76893;DHT22;65854;51.466;7.260;2022-12-08T10:27:09;3.00;94.00
76893;DHT22;65854;51.466;7.260;2022-12-08T10:29:36;3.00;93.60
76893;DHT22;65854;51.466;7.260;2022-12-08T10:32:12;3.00;93.70
76893;DHT22;65854;51.466;7.260;2022-12-08T10:35:01;2.90;93.30
76893;DHT22;65854;51.466;7.260;2022-12-08T10:37:27;3.00;94.10
76893;DHT22;65854;51.466;7.260;2022-12-08T10:40:19;3.00;94.10
76893;DHT22;65854;51.466;7.260;2022-12-08T10:42:50;2.90;93.60
76893;DHT22;65854;51.466;7.260;2022-12-08T10:45:21;2.90;93.40
76893;DHT22;65854;51.466;7.260;2022-12-08T10:48:25;2.90;94.00
76893;DHT22;65854;51.466;7.260;2022-12-08T10:50:58;3.00;94.60
76893;DHT22;65854;51.466;7.260;2022-12-08T10:53:26;3.00;94.30
76893;DHT22;65854;51.466;7.260;2022-12-08T10:58:36;3.00;94.90
76893;DHT22;65854;51.466;7.260;2022-12-08T11:01:25;3.00;95.10
76893;DHT22;65854;51.466;7.260;2022-12-08T11:04:03;3.10;95.30
76893;DHT22;65854;51.466;7.260;2022-12-08T11:06:30;3.10;95.40
76893;DHT22;65854;51.466;7.260;2022-12-08T11:08:59;2.90;94.70
76893;DHT22;65854;51.466;7.260;2022-12-08T11:14:18;2.80;94.90
76893;DHT22;65854;51.466;7.260;2022-12-08T11:16:46;2.80;95.30
76893;DHT22;65854;51.466;7.260;2022-12-08T11:19:17;2.80;95.40
76893;DHT22;65854;51.466;7.260;2022-12-08T11:21:44;2.80;95.60
76893;DHT22;65854;51.466;7.260;2022-12-08T11:26:40;2.70;95.20
76893;DHT22;65854;51.466;7.260;2022-12-08T11:29:10;2.70;95.40
76893;DHT22;65854;51.466;7.260;2022-12-08T11:31:41;2.70;95.50
76893;DHT22;65854;51.466;7.260;2022-12-08T11:34:22;2.70;95.80
76893;DHT22;65854;51.466;7.260;2022-12-08T11:36:52;2.80;96.00
76893;DHT22;65854;51.466;7.260;2022-12-08T11:39:18;2.80;95.90
76893;DHT22;65854;51.466;7.260;2022-12-08T11:41:45;2.70;96.00
76893;DHT22;65854;51.466;7.260;2022-12-08T11:44:38;2.80;96.10
76893;DHT22;65854;51.466;7.260;2022-12-08T11:47:21;2.90;96.30
76893;DHT22;65854;51.466;7.260;2022-12-08T11:49:51;2.80;96.10
76893;DHT22;65854;51.466;7.260;2022-12-08T11:52:31;2.90;96.10
76893;DHT22;65854;51.466;7.260;2022-12-08T11:55:04;2.90;96.20
76893;DHT22;65854;51.466;7.260;2022-12-08T11:57:33;3.00;96.40
76893;DHT22;65854;51.466;7.260;2022-12-08T12:00:00;3.00;96.40
76893;DHT22;65854;51.466;7.260;2022-12-08T12:02:31;3.00;96.30
76893;DHT22;65854;51.466;7.260;2022-12-08T12:07:54;3.00;96.50
76893;DHT22;65854;51.466;7.260;2022-12-08T12:10:33;3.00;96.60
76893;DHT22;65854;51.466;7.260;2022-12-08T12:13:40;3.10;96.60
76893;DHT22;65854;51.466;7.260;2022-12-08T12:16:27;3.10;96.60
76893;DHT22;65854;51.466;7.260;2022-12-08T12:18:58;3.20;96.60
76893;DHT22;65854;51.466;7.260;2022-12-08T12:21:41;3.20;96.60
76893;DHT22;65854;51.466;7.260;2022-12-08T12:24:17;3.10;96.50
76893;DHT22;65854;51.466;7.260;2022-12-08T12:29:49;3.10;96.50
76893;DHT22;65854;51.466;7.260;2022-12-08T12:32:15;3.10;96.40
76893;DHT22;65854;51.466;7.260;2022-12-08T12:34:49;3.20;96.40
76893;DHT22;65854;51.466;7.260;2022-12-08T12:37:24;3.20;96.50
76893;DHT22;65854;51.466;7.260;2022-12-08T12:40:02;3.30;96.50
76893;DHT22;65854;51.466;7.260;2022-12-08T12:43:11;3.30;96.40
76893;DHT22;65854;51.466;7.260;2022-12-08T12:45:36;3.20;96.30
76893;DHT22;65854;51.466;7.260;2022-12-08T12:55:55;3.10;96.30
76893;DHT22;65854;51.466;7.260;2022-12-08T13:03:38;3.00;96.40
76893;DHT22;65854;51.466;7.260;2022-12-08T13:06:05;2.90;96.50
76893;DHT22;65854;51.466;7.260;2022-12-08T13:08:32;2.80;96.50
76893;DHT22;65854;51.466;7.260;2022-12-08T13:11:02;2.60;96.40
76893;DHT22;65854;51.466;7.260;2022-12-08T13:13:28;2.50;96.60
76893;DHT22;65854;51.466;7.260;2022-12-08T13:18:34;2.40;96.80
76893;DHT22;65854;51.466;7.260;2022-12-08T13:21:12;2.40;96.80
76893;DHT22;65854;51.466;7.260;2022-12-08T13:26:25;2.40;96.90
76893;DHT22;65854;51.466;7.260;2022-12-08T13:31:35;2.40;97.10
76893;DHT22;65854;51.466;7.260;2022-12-08T13:34:06;2.50;97.20
76893;DHT22;65854;51.466;7.260;2022-12-08T13:36:40;2.60;97.20
76893;DHT22;65854;51.466;7.260;2022-12-08T13:39:25;2.60;97.20
76893;DHT22;65854;51.466;7.260;2022-12-08T13:41:59;2.60;97.10
76893;DHT22;65854;51.466;7.260;2022-12-08T13:44:31;2.50;97.10
76893;DHT22;65854;51.466;7.260;2022-12-08T13:46:59;2.60;97.20
76893;DHT22;65854;51.466;7.260;2022-12-08T13:49:35;2.60;97.20
76893;DHT22;65854;51.466;7.260;2022-12-08T13:52:02;2.60;97.20
76893;DHT22;65854;51.466;7.260;2022-12-08T13:54:34;2.60;97.20
76893;DHT22;65854;51.466;7.260;2022-12-08T13:57:03;2.60;97.20
76893;DHT22;65854;51.466;7.260;2022-12-08T13:59:32;2.60;97.20
76893;DHT22;65854;51.466;7.260;2022-12-08T14:04:57;2.80;97.30
76893;DHT22;65854;51.466;7.260;2022-12-08T14:07:23;2.80;97.30
76893;DHT22;65854;51.466;7.260;2022-12-08T14:09:50;2.90;97.30
76893;DHT22;65854;51.466;7.260;2022-12-08T14:12:19;2.90;97.20
76893;DHT22;65854;51.466;7.260;2022-12-08T14:14:49;2.80;97.20
76893;DHT22;65854;51.466;7.260;2022-12-08T14:17:20;2.90;97.20
76893;DHT22;65854;51.466;7.260;2022-12-08T14:20:03;2.90;97.20
76893;DHT22;65854;51.466;7.260;2022-12-08T14:22:36;2.90;97.20
76893;DHT22;65854;51.466;7.260;2022-12-08T14:25:03;2.90;97.10
76893;DHT22;65854;51.466;7.260;2022-12-08T14:27:35;2.90;97.10
76893;DHT22;65854;51.466;7.260;2022-12-08T14:37:48;2.70;96.80
76893;DHT22;65854;51.466;7.260;2022-12-08T14:42:45;2.90;96.90
76893;DHT22;65854;51.466;7.260;2022-12-08T14:45:14;2.90;96.80
76893;DHT22;65854;51.466;7.260;2022-12-08T14:47:40;2.90;96.70
76893;DHT22;65854;51.466;7.260;2022-12-08T14:50:35;3.00;96.70
76893;DHT22;65854;51.466;7.260;2022-12-08T14:53:02;3.00;96.60
76893;DHT22;65854;51.466;7.260;2022-12-08T14:55:33;3.00;96.50
76893;DHT22;65854;51.466;7.260;2022-12-08T14:58:00;2.90;96.40
76893;DHT22;65854;51.466;7.260;2022-12-08T15:00:27;3.00;96.40
76893;DHT22;65854;51.466;7.260;2022-12-08T15:02:52;2.90;96.30
76893;DHT22;65854;51.466;7.260;2022-12-08T15:05:20;2.90;96.30
76893;DHT22;65854;51.466;7.260;2022-12-08T15:07:49;2.90;96.20
76893;DHT22;65854;51.466;7.260;2022-12-08T15:15:23;2.90;96.00
76893;DHT22;65854;51.466;7.260;2022-12-08T15:17:57;2.90;95.90
76893;DHT22;65854;51.466;7.260;2022-12-08T15:23:05;2.80;95.70
76893;DHT22;65854;51.466;7.260;2022-12-08T15:25:31;2.80;95.70
76893;DHT22;65854;51.466;7.260;2022-12-08T15:27:58;2.80;95.80
76893;DHT22;65854;51.466;7.260;2022-12-08T15:30:26;2.80;95.60
76893;DHT22;65854;51.466;7.260;2022-12-08T15:32:52;2.80;95.60
76893;DHT22;65854;51.466;7.260;2022-12-08T15:35:18;2.90;95.60
76893;DHT22;65854;51.466;7.260;2022-12-08T15:37:44;2.90;95.60
76893;DHT22;65854;51.466;7.260;2022-12-08T15:40:19;2.90;95.60
76893;DHT22;65854;51.466;7.260;2022-12-08T15:42:48;2.90;95.60
76893;DHT22;65854;51.466;7.260;2022-12-08T15:45:15;2.90;95.30
76893;DHT22;65854;51.466;7.260;2022-12-08T15:47:42;2.90;95.30
76893;DHT22;65854;51.466;7.260;2022-12-08T15:50:19;2.90;95.30
76893;DHT22;65854;51.466;7.260;2022-12-08T15:52:45;2.90;95.30
76893;DHT22;65854;51.466;7.260;2022-12-08T15:55:15;2.90;95.20
76893;DHT22;65854;51.466;7.260;2022-12-08T15:57:46;2.90;95.20
76893;DHT22;65854;51.466;7.260;2022-12-08T16:02:49;3.00;95.10
76893;DHT22;65854;51.466;7.260;2022-12-08T16:05:15;3.00;95.10
76893;DHT22;65854;51.466;7.260;2022-12-08T16:07:41;3.00;95.20
76893;DHT22;65854;51.466;7.260;2022-12-08T16:10:13;3.10;95.00
76893;DHT22;65854;51.466;7.260;2022-12-08T16:12:40;3.10;94.90
76893;DHT22;65854;51.466;7.260;2022-12-08T16:15:24;3.10;94.90
76893;DHT22;65854;51.466;7.260;2022-12-08T16:17:50;3.10;94.90
76893;DHT22;65854;51.466;7.260;2022-12-08T16:20:16;3.20;94.80
76893;DHT22;65854;51.466;7.260;2022-12-08T16:22:42;3.20;94.70
76893;DHT22;65854;51.466;7.260;2022-12-08T16:25:09;3.20;94.70
76893;DHT22;65854;51.466;7.260;2022-12-08T16:27:37;3.20;94.50
76893;DHT22;65854;51.466;7.260;2022-12-08T16:30:03;3.20;94.40
76893;DHT22;65854;51.466;7.260;2022-12-08T16:32:29;3.20;94.30
76893;DHT22;65854;51.466;7.260;2022-12-08T16:34:55;3.20;94.30
76893;DHT22;65854;51.466;7.260;2022-12-08T16:37:23;3.20;94.20
76893;DHT22;65854;51.466;7.260;2022-12-08T16:39:51;3.20;94.10
76893;DHT22;65854;51.466;7.260;2022-12-08T16:42:19;3.20;93.90
76893;DHT22;65854;51.466;7.260;2022-12-08T16:45:07;3.20;93.60
76893;DHT22;65854;51.466;7.260;2022-12-08T16:47:34;3.20;93.60
76893;DHT22;65854;51.466;7.260;2022-12-08T16:49:59;3.20;93.60
76893;DHT22;65854;51.466;7.260;2022-12-08T16:52:27;3.20;93.70
76893;DHT22;65854;51.466;7.260;2022-12-08T16:54:53;3.20;93.70
76893;DHT22;65854;51.466;7.260;2022-12-08T16:57:18;3.20;93.40
76893;DHT22;65854;51.466;7.260;2022-12-08T16:59:44;3.20;93.50
76893;DHT22;65854;51.466;7.260;2022-12-08T17:02:10;3.20;93.50
76893;DHT22;65854;51.466;7.260;2022-12-08T17:04:35;3.30;93.50
76893;DHT22;65854;51.466;7.260;2022-12-08T17:07:01;3.30;93.40
76893;DHT22;65854;51.466;7.260;2022-12-08T17:09:26;3.30;93.40
76893;DHT22;65854;51.466;7.260;2022-12-08T17:11:52;3.30;93.20
76893;DHT22;65854;51.466;7.260;2022-12-08T17:14:18;3.30;92.90
76893;DHT22;65854;51.466;7.260;2022-12-08T17:16:44;3.20;92.60
76893;DHT22;65854;51.466;7.260;2022-12-08T17:19:12;3.20;92.80
76893;DHT22;65854;51.466;7.260;2022-12-08T17:21:37;3.30;93.00
76893;DHT22;65854;51.466;7.260;2022-12-08T17:24:04;3.30;92.90
76893;DHT22;65854;51.466;7.260;2022-12-08T17:26:29;3.30;92.70